createdAt,value
2019-01-25T00:00:40.359Z,-5.00
2019-01-25T00:03:10.550Z,-5.00
2019-01-25T00:05:37.590Z,-5.00
2019-01-25T00:08:04.529Z,-5.00
2019-01-25T00:10:31.582Z,-5.00
2019-01-25T00:12:58.524Z,-5.00
2019-01-25T00:15:25.426Z,-5.00
2019-01-25T00:17:51.958Z,-5.00
2019-01-25T00:20:18.788Z,-5.00
2019-01-25T00:22:49.998Z,-5.00
2019-01-25T00:25:17.947Z,-5.00
2019-01-25T00:27:56.423Z,-5.10
2019-01-25T00:30:25.364Z,-5.10
2019-01-25T00:32:52.889Z,-5.00
2019-01-25T00:35:19.615Z,-5.00
2019-01-25T00:37:46.094Z,-5.00
2019-01-25T00:40:19.807Z,-5.00
2019-01-25T00:42:46.355Z,-5.10
2019-01-25T00:45:14.712Z,-5.10
2019-01-25T00:47:42.277Z,-5.10
2019-01-25T00:50:18.176Z,-5.10
2019-01-25T00:52:57.196Z,-5.10
2019-01-25T00:55:29.154Z,-5.10
2019-01-25T00:57:55.941Z,-5.10
2019-01-25T01:00:25.881Z,-5.10
2019-01-25T01:02:54.455Z,-5.10
2019-01-25T01:05:21.588Z,-5.10
2019-01-25T01:07:51.778Z,-5.10
2019-01-25T01:10:19.509Z,-5.10
2019-01-25T01:12:46.258Z,-5.10
2019-01-25T01:15:14.155Z,-5.10
2019-01-25T01:17:50.879Z,-5.10
2019-01-25T01:20:19.715Z,-5.00
2019-01-25T01:22:48.526Z,-5.10
2019-01-25T01:25:15.548Z,-5.10
2019-01-25T01:27:43.309Z,-5.00
2019-01-25T01:30:16.006Z,-5.00
2019-01-25T01:32:42.535Z,-5.00
2019-01-25T01:35:10.194Z,-5.00
2019-01-25T01:37:40.934Z,-5.00
2019-01-25T01:40:22.108Z,-5.00
2019-01-25T01:42:53.274Z,-5.00
2019-01-25T01:45:21.411Z,-5.00
2019-01-25T01:47:49.114Z,-5.00
2019-01-25T01:50:17.443Z,-5.10
2019-01-25T01:52:47.486Z,-5.00
2019-01-25T01:55:14.565Z,-5.00
2019-01-25T01:57:41.478Z,-5.00
2019-01-25T02:00:17.186Z,-5.00
2019-01-25T02:02:45.135Z,-5.00
2019-01-25T02:05:17.180Z,-5.00
2019-01-25T02:07:45.874Z,-5.00
2019-01-25T02:10:29.037Z,-5.00
2019-01-25T02:12:50.779Z,-5.00
2019-01-25T02:15:19.024Z,-5.00
2019-01-25T02:17:45.838Z,-5.00
2019-01-25T02:20:24.070Z,-5.00
2019-01-25T02:22:50.806Z,-5.00
2019-01-25T02:25:17.806Z,-5.10
2019-01-25T02:27:44.675Z,-5.10
2019-01-25T02:30:20.010Z,-5.10
2019-01-25T02:32:48.920Z,-5.10
2019-01-25T02:35:16.151Z,-5.10
2019-01-25T02:37:43.821Z,-5.10
2019-01-25T02:40:17.068Z,-5.10
2019-01-25T02:42:44.074Z,-5.10
2019-01-25T02:45:13.150Z,-5.10
2019-01-25T02:47:40.267Z,-5.10
2019-01-25T02:50:12.765Z,-5.10
2019-01-25T02:52:39.426Z,-5.10
2019-01-25T02:55:08.167Z,-5.10
2019-01-25T02:57:35.148Z,-5.10
2019-01-25T03:00:04.004Z,-5.10
2019-01-25T03:02:31.226Z,-5.10
2019-01-25T03:04:58.028Z,-5.10
2019-01-25T03:07:24.750Z,-5.00
2019-01-25T03:10:13.518Z,-5.00
2019-01-25T03:12:40.176Z,-5.00
2019-01-25T03:15:11.322Z,-5.10
2019-01-25T03:17:42.536Z,-5.10
2019-01-25T03:20:11.976Z,-5.10
2019-01-25T03:22:38.738Z,-5.10
2019-01-25T03:25:11.827Z,-5.10
2019-01-25T03:27:39.671Z,-5.00
2019-01-25T03:30:10.113Z,-5.00
2019-01-25T03:32:40.925Z,-5.10
2019-01-25T03:35:10.532Z,-5.10
2019-01-25T03:37:38.460Z,-5.10
2019-01-25T03:40:10.035Z,-5.10
2019-01-25T03:42:38.794Z,-5.10
2019-01-25T03:45:07.181Z,-5.10
2019-01-25T03:47:33.690Z,-5.20
2019-01-25T03:50:01.455Z,-5.20
2019-01-25T03:52:28.012Z,-5.20
2019-01-25T03:54:59.098Z,-5.20
2019-01-25T03:57:30.379Z,-5.20
2019-01-25T03:59:56.978Z,-5.20
2019-01-25T04:02:23.786Z,-5.20
2019-01-25T04:04:50.564Z,-5.20
2019-01-25T04:07:21.475Z,-5.20
2019-01-25T04:09:51.800Z,-5.20
2019-01-25T04:12:19.671Z,-5.20
2019-01-25T04:14:47.546Z,-5.20
2019-01-25T04:17:17.768Z,-5.20
2019-01-25T04:19:44.606Z,-5.20
2019-01-25T04:22:16.559Z,-5.20
2019-01-25T04:24:43.319Z,-5.20
2019-01-25T04:27:10.975Z,-5.20
2019-01-25T04:29:42.940Z,-5.20
2019-01-25T04:32:09.848Z,-5.20
2019-01-25T04:34:36.390Z,-5.20
2019-01-25T04:37:05.271Z,-5.20
2019-01-25T04:39:32.770Z,-5.20
2019-01-25T04:42:10.503Z,-5.20
2019-01-25T04:44:38.343Z,-5.30
2019-01-25T04:47:05.321Z,-5.30
2019-01-25T04:49:34.595Z,-5.30
2019-01-25T04:52:01.414Z,-5.30
2019-01-25T04:54:28.163Z,-5.40
2019-01-25T04:56:56.723Z,-5.30
2019-01-25T04:59:28.057Z,-5.40
2019-01-25T05:01:55.713Z,-5.40
2019-01-25T05:04:22.555Z,-5.40
2019-01-25T05:06:49.134Z,-5.30
2019-01-25T05:09:15.808Z,-5.30
2019-01-25T05:11:42.607Z,-5.30
2019-01-25T05:14:10.432Z,-5.30
2019-01-25T05:16:38.329Z,-5.40
2019-01-25T05:19:05.175Z,-5.40
2019-01-25T05:21:31.718Z,-5.40
2019-01-25T05:23:58.428Z,-5.40
2019-01-25T05:26:25.290Z,-5.40
2019-01-25T05:28:57.044Z,-5.40
2019-01-25T05:31:29.111Z,-5.40
2019-01-25T05:33:56.641Z,-5.30
2019-01-25T05:36:27.612Z,-5.40
2019-01-25T05:38:56.200Z,-5.40
2019-01-25T05:41:33.122Z,-5.40
2019-01-25T05:44:01.042Z,-5.40
2019-01-25T05:46:30.668Z,-5.40
2019-01-25T05:48:57.425Z,-5.40
2019-01-25T05:51:33.444Z,-5.50
2019-01-25T05:53:55.731Z,-5.50
2019-01-25T05:56:24.696Z,-5.50
2019-01-25T05:58:51.312Z,-5.60
2019-01-25T06:01:18.962Z,-5.60
2019-01-25T06:03:46.743Z,-5.70
2019-01-25T06:06:16.575Z,-5.80
2019-01-25T06:08:44.237Z,-5.80
2019-01-25T06:11:11.455Z,-5.90
2019-01-25T06:13:44.402Z,-5.90
2019-01-25T06:16:13.059Z,-5.90
2019-01-25T06:18:45.110Z,-6.00
2019-01-25T06:21:12.797Z,-6.00
2019-01-25T06:23:44.318Z,-6.00
2019-01-25T06:26:16.219Z,-6.10
2019-01-25T06:28:48.060Z,-6.10
2019-01-25T06:31:18.127Z,-6.20
2019-01-25T06:33:44.957Z,-6.20
2019-01-25T06:36:12.684Z,-6.20
2019-01-25T06:38:40.618Z,-6.20
2019-01-25T06:41:08.718Z,-6.10
2019-01-25T06:43:36.383Z,-6.10
2019-01-25T06:46:03.200Z,-6.10
2019-01-25T06:48:30.246Z,-6.10
2019-01-25T06:50:57.809Z,-6.10
2019-01-25T06:53:24.820Z,-6.10
2019-01-25T06:55:51.399Z,-6.10
2019-01-25T06:58:25.928Z,-6.20
2019-01-25T07:00:57.659Z,-6.20
2019-01-25T07:03:24.161Z,-6.30
2019-01-25T07:05:50.816Z,-6.30
2019-01-25T07:08:19.159Z,-6.40
2019-01-25T07:10:45.987Z,-6.50
2019-01-25T07:13:14.698Z,-6.60
2019-01-25T07:15:41.159Z,-6.60
2019-01-25T07:18:08.994Z,-6.70
2019-01-25T07:20:36.084Z,-6.70
2019-01-25T07:23:03.754Z,-6.70
2019-01-25T07:25:30.503Z,-6.80
2019-01-25T07:27:57.063Z,-6.90
2019-01-25T07:30:24.663Z,-7.00
2019-01-25T07:32:51.347Z,-7.00
2019-01-25T07:35:17.899Z,-7.10
2019-01-25T07:37:44.760Z,-7.10
2019-01-25T07:40:11.419Z,-7.20
2019-01-25T07:42:38.317Z,-7.20
2019-01-25T07:45:08.833Z,-7.20
2019-01-25T07:47:37.383Z,-7.20
2019-01-25T07:50:08.737Z,-7.10
2019-01-25T07:52:35.370Z,-7.10
2019-01-25T07:55:09.436Z,-7.00
2019-01-25T07:57:36.122Z,-6.90
2019-01-25T08:00:05.775Z,-6.90
2019-01-25T08:02:32.252Z,-6.80
2019-01-25T08:04:59.088Z,-6.70
2019-01-25T08:07:26.740Z,-6.70
2019-01-25T08:09:53.294Z,-6.60
2019-01-25T08:12:19.832Z,-6.60
2019-01-25T08:14:46.492Z,-6.50
2019-01-25T08:17:14.335Z,-6.50
2019-01-25T08:19:41.241Z,-6.40
2019-01-25T08:22:08.924Z,-6.30
2019-01-25T08:24:36.707Z,-6.20
2019-01-25T08:27:03.264Z,-6.10
2019-01-25T08:29:33.479Z,-6.00
2019-01-25T08:32:06.165Z,-5.80
2019-01-25T08:34:35.094Z,-5.70
2019-01-25T08:37:01.732Z,-5.50
2019-01-25T08:39:28.277Z,-5.30
2019-01-25T08:42:00.014Z,-5.20
2019-01-25T08:44:28.625Z,-5.00
2019-01-25T08:46:59.782Z,-4.80
2019-01-25T08:49:27.686Z,-4.70
2019-01-25T08:51:54.341Z,-4.50
2019-01-25T08:54:22.159Z,-4.40
2019-01-25T08:56:50.047Z,-4.30
2019-01-25T08:59:16.935Z,-4.30
2019-01-25T09:01:45.813Z,-4.10
2019-01-25T09:04:13.375Z,-4.10
2019-01-25T09:06:41.165Z,-4.00
2019-01-25T09:09:09.185Z,-4.00
2019-01-25T09:11:37.163Z,-3.90
2019-01-25T09:14:08.919Z,-3.80
2019-01-25T09:16:35.796Z,-3.80
2019-01-25T09:19:03.798Z,-3.70
2019-01-25T09:21:31.738Z,-3.50
2019-01-25T09:23:58.158Z,-3.40
2019-01-25T09:26:24.732Z,-3.20
2019-01-25T09:28:52.625Z,-3.10
2019-01-25T09:31:28.246Z,-3.00
2019-01-25T09:33:57.213Z,-3.00
2019-01-25T09:36:23.779Z,-3.00
2019-01-25T09:38:51.073Z,-2.90
2019-01-25T09:41:17.623Z,-2.90
2019-01-25T09:43:44.303Z,-2.90
2019-01-25T09:46:11.155Z,-3.10
2019-01-25T09:48:38.346Z,-3.20
2019-01-25T09:51:05.161Z,-3.10
2019-01-25T09:53:32.116Z,-3.00
2019-01-25T09:55:59.528Z,-3.00
2019-01-25T09:58:26.840Z,-2.90
2019-01-25T10:00:59.827Z,-2.80
2019-01-25T10:03:26.630Z,-2.70
2019-01-25T10:05:55.249Z,-2.60
2019-01-25T10:08:21.949Z,-2.50
2019-01-25T10:10:48.585Z,-2.50
2019-01-25T10:13:15.266Z,-2.40
2019-01-25T10:15:41.831Z,-2.40
2019-01-25T10:18:08.408Z,-2.40
2019-01-25T10:20:35.381Z,-2.30
2019-01-25T10:23:02.009Z,-2.30
2019-01-25T10:25:28.909Z,-2.30
2019-01-25T10:27:56.166Z,-2.20
2019-01-25T10:30:26.839Z,-2.20
2019-01-25T10:32:53.894Z,-2.00
2019-01-25T10:35:22.696Z,-2.10
2019-01-25T10:37:51.465Z,-2.00
2019-01-25T10:40:21.711Z,-1.90
2019-01-25T10:42:53.497Z,-1.60
2019-01-25T10:45:36.851Z,-1.30
2019-01-25T10:48:05.562Z,-1.00
2019-01-25T10:50:40.371Z,-0.70
2019-01-25T10:53:09.362Z,-0.30
2019-01-25T10:55:36.191Z,0.00
2019-01-25T10:58:08.106Z,0.20
2019-01-25T11:00:36.288Z,0.40
2019-01-25T11:03:05.761Z,0.50
2019-01-25T11:05:37.524Z,0.50
2019-01-25T11:08:05.354Z,0.40
2019-01-25T11:10:33.049Z,0.20
2019-01-25T11:13:04.168Z,0.10
2019-01-25T11:15:31.150Z,0.00
2019-01-25T11:18:02.860Z,0.00
2019-01-25T11:20:29.763Z,-0.10
2019-01-25T11:22:56.600Z,-0.20
2019-01-25T11:25:29.863Z,-0.10
2019-01-25T11:27:56.801Z,0.00
2019-01-25T11:30:23.691Z,0.30
2019-01-25T11:32:52.346Z,0.60
2019-01-25T11:35:18.958Z,0.70
2019-01-25T11:37:45.776Z,0.80
2019-01-25T11:40:21.381Z,0.80
2019-01-25T11:42:48.096Z,0.80
2019-01-25T11:45:18.407Z,0.50
2019-01-25T11:47:46.731Z,0.40
2019-01-25T11:50:19.228Z,0.30
2019-01-25T11:52:47.969Z,0.00
2019-01-25T11:55:17.921Z,-0.10
2019-01-25T11:57:45.759Z,-0.30
2019-01-25T12:00:17.507Z,-0.50
2019-01-25T12:02:44.337Z,-0.50
2019-01-25T12:05:14.435Z,-0.50
2019-01-25T12:07:44.365Z,-0.40
2019-01-25T12:10:15.600Z,-0.50
2019-01-25T12:12:44.213Z,-0.50
2019-01-25T12:15:13.336Z,-0.60
2019-01-25T12:17:40.497Z,-0.70
2019-01-25T12:20:20.431Z,-0.80
2019-01-25T12:22:46.983Z,-0.90
2019-01-25T12:25:13.518Z,-1.00
2019-01-25T12:27:41.121Z,-1.10
2019-01-25T12:30:11.971Z,-1.10
2019-01-25T12:32:39.075Z,-1.20
2019-01-25T12:35:11.632Z,-1.30
2019-01-25T12:37:38.379Z,-1.30
2019-01-25T12:40:08.978Z,-1.30
2019-01-25T12:42:37.135Z,-1.30
2019-01-25T12:45:09.007Z,-1.30
2019-01-25T12:47:37.017Z,-1.40
2019-01-25T12:50:17.457Z,-1.50
2019-01-25T12:52:45.504Z,-1.50
2019-01-25T12:55:12.274Z,-1.50
2019-01-25T12:57:39.971Z,-1.40
2019-01-25T13:00:16.296Z,-1.30
2019-01-25T13:02:44.049Z,-1.30
2019-01-25T13:05:15.018Z,-1.30
2019-01-25T13:07:41.900Z,-1.30
2019-01-25T13:10:14.916Z,-1.30
2019-01-25T13:12:41.836Z,-1.30
2019-01-25T13:15:10.560Z,-1.30
2019-01-25T13:17:39.869Z,-1.30
2019-01-25T13:20:18.421Z,-1.40
2019-01-25T13:22:45.491Z,-1.30
2019-01-25T13:25:13.611Z,-1.30
2019-01-25T13:27:42.677Z,-1.40
2019-01-25T13:30:17.339Z,-1.40
2019-01-25T13:32:45.365Z,-1.40
2019-01-25T13:35:12.286Z,-1.50
2019-01-25T13:37:39.351Z,-1.40
2019-01-25T13:40:11.057Z,-1.40
2019-01-25T13:42:38.204Z,-1.40
2019-01-25T13:45:08.555Z,-1.40
2019-01-25T13:47:35.719Z,-1.40
2019-01-25T13:50:05.701Z,-1.40
2019-01-25T13:52:34.882Z,-1.40
2019-01-25T13:55:01.963Z,-1.40
2019-01-25T13:57:28.583Z,-1.30
2019-01-25T13:59:57.276Z,-1.30
2019-01-25T14:02:28.434Z,-1.40
2019-01-25T14:05:04.378Z,-1.40
2019-01-25T14:07:31.127Z,-1.40
2019-01-25T14:09:58.235Z,-1.30
2019-01-25T14:12:27.072Z,-1.30
2019-01-25T14:14:54.953Z,-1.30
2019-01-25T14:17:22.117Z,-1.30
2019-01-25T14:19:52.875Z,-1.30
2019-01-25T14:22:19.855Z,-1.30
2019-01-25T14:24:47.460Z,-1.30
2019-01-25T14:27:15.632Z,-1.30
2019-01-25T14:29:42.512Z,-1.20
2019-01-25T14:32:09.409Z,-1.20
2019-01-25T14:34:37.472Z,-1.00
2019-01-25T14:37:05.128Z,-1.00
2019-01-25T14:39:37.820Z,-1.00
2019-01-25T14:42:10.679Z,-1.10
2019-01-25T14:44:39.562Z,-1.10
2019-01-25T14:47:07.559Z,-1.20
2019-01-25T14:49:37.470Z,-1.20
2019-01-25T14:52:05.251Z,-1.30
2019-01-25T14:54:33.773Z,-1.30
2019-01-25T14:57:01.378Z,-1.40
2019-01-25T14:59:39.683Z,-1.50
2019-01-25T15:02:08.253Z,-1.60
2019-01-25T15:04:36.178Z,-1.70
2019-01-25T15:07:05.092Z,-1.70
2019-01-25T15:09:31.647Z,-1.80
2019-01-25T15:11:59.610Z,-1.80
2019-01-25T15:14:28.660Z,-1.90
2019-01-25T15:16:55.538Z,-2.00
2019-01-25T15:19:23.112Z,-2.00
2019-01-25T15:21:51.199Z,-2.00
2019-01-25T15:24:18.030Z,-2.10
2019-01-25T15:26:44.558Z,-2.10
2019-01-25T15:29:11.528Z,-2.20
2019-01-25T15:31:38.422Z,-2.20
2019-01-25T15:34:09.221Z,-2.20
2019-01-25T15:36:36.153Z,-2.30
2019-01-25T15:39:05.801Z,-2.40
2019-01-25T15:41:32.888Z,-2.40
2019-01-25T15:43:59.512Z,-2.50
2019-01-25T15:46:27.563Z,-2.50
2019-01-25T15:48:58.679Z,-2.50
2019-01-25T15:51:27.631Z,-2.50
2019-01-25T15:53:54.287Z,-2.60
2019-01-25T15:56:21.189Z,-2.60
2019-01-25T15:58:48.813Z,-2.70
2019-01-25T16:01:20.089Z,-2.70
2019-01-25T16:03:46.691Z,-2.80
2019-01-25T16:06:17.108Z,-2.90
2019-01-25T16:08:45.101Z,-3.00
2019-01-25T16:11:15.720Z,-3.00
2019-01-25T16:13:42.289Z,-3.00
2019-01-25T16:16:09.262Z,-3.10
2019-01-25T16:18:36.231Z,-3.10
2019-01-25T16:21:03.367Z,-3.20
2019-01-25T16:23:32.346Z,-3.20
2019-01-25T16:26:01.169Z,-3.20
2019-01-25T16:28:27.800Z,-3.20
2019-01-25T16:30:55.474Z,-3.30
2019-01-25T16:33:22.297Z,-3.30
2019-01-25T16:35:49.073Z,-3.30
2019-01-25T16:38:16.406Z,-3.40
2019-01-25T16:40:43.168Z,-3.40
2019-01-25T16:43:10.321Z,-3.40
2019-01-25T16:45:39.189Z,-3.40
2019-01-25T16:48:10.400Z,-3.40
2019-01-25T16:50:37.521Z,-3.40
2019-01-25T16:53:18.444Z,-3.40
2019-01-25T16:55:45.366Z,-3.40
2019-01-25T16:58:12.696Z,-3.40
2019-01-25T17:00:44.373Z,-3.40
2019-01-25T17:03:13.711Z,-3.40
2019-01-25T17:05:41.430Z,-3.40
2019-01-25T17:08:11.202Z,-3.40
2019-01-25T17:10:38.401Z,-3.30
2019-01-25T17:13:09.728Z,-3.30
2019-01-25T17:15:37.727Z,-3.30
2019-01-25T17:18:06.191Z,-3.20
2019-01-25T17:20:39.029Z,-3.20
2019-01-25T17:23:05.745Z,-3.20
2019-01-25T17:25:34.268Z,-3.20
2019-01-25T17:28:03.401Z,-3.10
2019-01-25T17:30:34.054Z,-3.20
2019-01-25T17:33:01.786Z,-3.10
2019-01-25T17:35:31.012Z,-3.10
2019-01-25T17:38:01.587Z,-3.10
2019-01-25T17:40:30.885Z,-3.10
2019-01-25T17:42:59.955Z,-3.10
2019-01-25T17:45:29.870Z,-3.10
2019-01-25T17:47:56.946Z,-3.00
2019-01-25T17:50:23.575Z,-3.00
2019-01-25T17:52:55.063Z,-3.10
2019-01-25T17:55:22.841Z,-3.00
2019-01-25T17:57:50.772Z,-3.00
2019-01-25T18:00:31.101Z,-3.00
2019-01-25T18:03:10.391Z,-3.00
2019-01-25T18:05:37.332Z,-3.00
2019-01-25T18:08:09.575Z,-3.00
2019-01-25T18:10:37.479Z,-3.00
2019-01-25T18:13:06.694Z,-3.00
2019-01-25T18:15:41.350Z,-2.90
2019-01-25T18:18:12.818Z,-2.90
2019-01-25T18:20:39.470Z,-2.90
2019-01-25T18:23:07.136Z,-2.90
2019-01-25T18:25:47.708Z,-2.80
2019-01-25T18:28:20.391Z,-2.80
2019-01-25T18:31:02.966Z,-2.80
2019-01-25T18:33:31.952Z,-2.80
2019-01-25T18:36:02.142Z,-2.80
2019-01-25T18:38:30.213Z,-2.80
2019-01-25T18:41:18.607Z,-2.80
2019-01-25T18:47:16.376Z,-2.80
2019-01-25T18:50:13.992Z,-2.80
2019-01-25T18:52:45.479Z,-2.80
2019-01-25T18:55:15.260Z,-2.80
2019-01-25T18:57:42.240Z,-2.70
2019-01-25T19:00:36.614Z,-2.80
2019-01-25T19:03:05.002Z,-2.70
2019-01-25T19:05:32.866Z,-2.70
2019-01-25T19:08:01.231Z,-2.70
2019-01-25T19:10:34.223Z,-2.70
2019-01-25T19:13:05.378Z,-2.60
2019-01-25T19:15:36.663Z,-2.60
2019-01-25T19:18:04.666Z,-2.70
2019-01-25T19:20:36.145Z,-2.70
2019-01-25T19:23:03.063Z,-2.70
2019-01-25T19:25:31.108Z,-2.60
2019-01-25T19:27:57.911Z,-2.60
2019-01-25T19:30:34.516Z,-2.60
2019-01-25T19:33:03.628Z,-2.60
2019-01-25T19:35:33.035Z,-2.60
2019-01-25T19:38:01.824Z,-2.60
2019-01-25T19:40:31.800Z,-2.60
2019-01-25T19:42:58.487Z,-2.60
2019-01-25T19:45:25.485Z,-2.60
2019-01-25T19:47:53.636Z,-2.60
2019-01-25T19:50:26.379Z,-2.50
2019-01-25T19:52:54.583Z,-2.60
2019-01-25T19:55:27.437Z,-2.50
2019-01-25T19:57:54.704Z,-2.60
2019-01-25T20:00:26.941Z,-2.60
2019-01-25T20:02:56.929Z,-2.60
2019-01-25T20:05:25.998Z,-2.50
2019-01-25T20:07:52.814Z,-2.50
2019-01-25T20:10:21.890Z,-2.50
2019-01-25T20:12:48.951Z,-2.50
2019-01-25T20:15:19.597Z,-2.50
2019-01-25T20:17:46.755Z,-2.50
2019-01-25T20:20:17.725Z,-2.50
2019-01-25T20:22:46.302Z,-2.40
2019-01-25T20:25:19.835Z,-2.50
2019-01-25T20:27:47.835Z,-2.40
2019-01-25T20:30:24.461Z,-2.40
2019-01-25T20:32:52.654Z,-2.40
2019-01-25T20:35:30.577Z,-2.30
2019-01-25T20:38:02.825Z,-2.40
2019-01-25T20:40:31.192Z,-2.40
2019-01-25T20:42:58.271Z,-2.40
2019-01-25T20:45:27.939Z,-2.40
2019-01-25T20:47:55.705Z,-2.40
2019-01-25T20:50:27.948Z,-2.40
2019-01-25T20:52:56.811Z,-2.40
2019-01-25T20:55:25.930Z,-2.40
2019-01-25T20:57:56.800Z,-2.40
2019-01-25T21:00:53.998Z,-2.40
2019-01-25T21:06:41.436Z,-2.30
2019-01-25T21:09:10.549Z,-2.30
2019-01-25T21:11:38.027Z,-2.30
2019-01-25T21:14:16.506Z,-2.30
2019-01-25T21:16:46.953Z,-2.30
2019-01-25T21:19:14.720Z,-2.30
2019-01-25T21:21:41.712Z,-2.30
2019-01-25T21:24:10.065Z,-2.30
2019-01-25T21:26:45.535Z,-2.30
2019-01-25T21:29:14.534Z,-2.30
2019-01-25T21:31:43.346Z,-2.30
2019-01-25T21:34:14.729Z,-2.30
2019-01-25T21:36:44.653Z,-2.30
2019-01-25T21:39:13.179Z,-2.30
2019-01-25T21:41:45.682Z,-2.30
2019-01-25T21:44:13.615Z,-2.30
2019-01-25T21:46:45.776Z,-2.30
2019-01-25T21:49:20.927Z,-2.40
2019-01-25T21:51:51.628Z,-2.40
2019-01-25T21:54:21.842Z,-2.40
2019-01-25T21:56:56.709Z,-2.40
2019-01-25T21:59:26.268Z,-2.50
2019-01-25T22:01:53.919Z,-2.40
2019-01-25T22:04:23.346Z,-2.50
2019-01-25T22:06:50.964Z,-2.50
2019-01-25T22:12:40.860Z,-2.40
2019-01-25T22:15:15.934Z,-2.40
2019-01-25T22:17:49.006Z,-2.40
2019-01-25T22:20:21.960Z,-2.40
2019-01-25T22:23:06.580Z,-2.30
2019-01-25T22:25:42.953Z,-2.30
2019-01-25T22:28:28.756Z,-2.40
2019-01-25T22:31:02.966Z,-2.30
2019-01-25T22:33:30.382Z,-2.30
2019-01-25T22:36:06.632Z,-2.30
2019-01-25T22:38:34.852Z,-2.30
2019-01-25T22:41:18.363Z,-2.30
2019-01-25T22:43:50.117Z,-2.30
2019-01-25T22:46:18.304Z,-2.20
2019-01-25T22:48:52.223Z,-2.20
2019-01-25T22:51:23.850Z,-2.20
2019-01-25T22:53:51.245Z,-2.20
2019-01-25T22:56:18.530Z,-2.20
2019-01-25T22:58:47.622Z,-2.20
2019-01-25T23:01:18.560Z,-2.20
2019-01-25T23:03:57.010Z,-2.10
2019-01-25T23:06:37.657Z,-2.10
2019-01-25T23:09:12.843Z,-2.10
2019-01-25T23:11:53.045Z,-2.00
2019-01-25T23:14:21.432Z,-2.10
2019-01-25T23:16:50.775Z,-2.10
2019-01-25T23:19:20.105Z,-2.00
2019-01-25T23:21:47.498Z,-2.00
2019-01-25T23:24:14.943Z,-2.00
2019-01-25T23:26:42.752Z,-2.00
2019-01-25T23:29:13.954Z,-2.00
2019-01-25T23:31:41.619Z,-2.00
2019-01-25T23:34:10.028Z,-2.00
2019-01-25T23:36:37.547Z,-2.00
2019-01-25T23:39:08.660Z,-2.00
2019-01-25T23:41:37.892Z,-2.00
2019-01-25T23:44:05.186Z,-2.00
2019-01-25T23:46:33.025Z,-2.00
2019-01-25T23:49:13.686Z,-2.00
2019-01-25T23:51:41.191Z,-2.00
2019-01-25T23:54:09.061Z,-2.00
2019-01-25T23:56:38.472Z,-2.00
2019-01-25T23:59:10.302Z,-2.10
